Time;durP1;ratioP1;P1;durP2;ratioP2;P2;SDS_P1;SDS_P2;PMS_P1;PMS_P2;Temp;Humidity;BMP_temperature;BMP_pressure;BME280_temperature;BME280_humidity;BME280_pressure;Samples;Min_cycle;Max_cycle;Signal;HPM_P1;HPM_P2
2022/04/27 00:00:49;;;;;;;0.70;0.70;;;15.50;98.40;;;;;;5083584;28;20443;-64
2022/04/27 00:03:20;;;;;;;1.13;0.70;;;15.50;98.90;;;;;;5084231;28;20450;-63
2022/04/27 00:05:51;;;;;;;2.20;0.70;;;15.70;99.50;;;;;;5083756;28;20487;-64
2022/04/27 00:08:24;;;;;;;0.90;0.90;;;15.90;98.50;;;;;;5082702;28;20460;-64
2022/04/27 00:10:55;;;;;;;0.70;0.70;;;15.80;96.20;;;;;;5083281;28;20456;-64
2022/04/27 00:13:25;;;;;;;0.97;0.90;;;15.70;95.70;;;;;;5082757;28;20535;-64
2022/04/27 00:15:56;;;;;;;1.30;1.13;;;15.90;98.30;;;;;;5083326;28;20486;-64
2022/04/27 00:18:27;;;;;;;1.67;0.90;;;15.80;94.50;;;;;;5083307;28;20463;-63
2022/04/27 00:20:58;;;;;;;2.20;0.80;;;16.00;94.60;;;;;;5083462;28;20448;-64
2022/04/27 00:23:32;;;;;;;1.10;1.00;;;16.00;95.10;;;;;;5082601;28;20965;-63
2022/04/27 00:26:03;;;;;;;0.70;0.70;;;16.10;92.60;;;;;;5082285;28;20453;-64
2022/04/27 00:28:34;;;;;;;0.90;0.60;;;16.30;93.40;;;;;;5081144;28;20576;-63
2022/04/27 00:31:05;;;;;;;0.73;0.70;;;15.80;93.40;;;;;;5081488;28;20459;-64
2022/04/27 00:33:36;;;;;;;1.40;1.03;;;15.40;93.90;;;;;;5078379;28;20549;-64
2022/04/27 00:36:07;;;;;;;1.70;0.97;;;15.10;94.20;;;;;;5081711;28;20493;-63
2022/04/27 00:38:39;;;;;;;1.40;0.77;;;14.90;95.30;;;;;;5078205;28;20468;-62
2022/04/27 00:41:10;;;;;;;1.20;0.90;;;14.70;96.00;;;;;;5081801;28;20463;-62
2022/04/27 00:43:42;;;;;;;0.80;0.80;;;14.60;96.30;;;;;;5081482;28;20463;-63
2022/04/27 00:46:13;;;;;;;1.50;0.90;;;14.50;98.60;;;;;;5081839;28;20465;-63
2022/04/27 00:48:45;;;;;;;2.60;0.80;;;14.60;99.90;;;;;;5080668;28;20458;-63
2022/04/27 00:51:19;;;;;;;1.73;0.70;;;14.40;99.10;;;;;;5080749;28;20459;-63
2022/04/27 00:53:53;;;;;;;1.10;0.60;;;14.40;99.50;;;;;;5081443;28;20483;-66
2022/04/27 00:56:24;;;;;;;0.90;0.83;;;14.40;99.30;;;;;;5078973;28;20482;-66
2022/04/27 00:58:55;;;;;;;0.60;0.57;;;14.40;99.70;;;;;;5079912;28;20471;-67
2022/04/27 01:01:26;;;;;;;0.90;0.53;;;14.40;98.90;;;;;;5078697;28;20455;-67
2022/04/27 01:03:57;;;;;;;1.00;0.70;;;14.50;98.90;;;;;;5082387;28;20481;-66
2022/04/27 01:06:30;;;;;;;0.80;0.77;;;14.40;98.60;;;;;;5082934;28;20451;-66
2022/04/27 01:09:03;;;;;;;0.67;0.67;;;14.30;98.20;;;;;;5080715;28;20460;-66
2022/04/27 01:11:34;;;;;;;0.90;0.60;;;14.30;97.30;;;;;;5081365;28;20851;-66
2022/04/27 01:14:05;;;;;;;1.00;0.60;;;14.30;97.70;;;;;;5082458;28;20495;-66
2022/04/27 01:16:36;;;;;;;0.70;0.63;;;14.10;97.60;;;;;;5082569;28;20497;-67
2022/04/27 01:19:07;;;;;;;0.87;0.60;;;14.10;97.80;;;;;;5082437;28;20489;-65
2022/04/27 01:21:40;;;;;;;1.27;1.17;;;14.00;97.70;;;;;;5081303;28;20468;-65
2022/04/27 01:24:11;;;;;;;0.53;0.53;;;13.90;97.00;;;;;;5078836;28;20459;-65
2022/04/27 01:26:42;;;;;;;0.70;0.70;;;13.90;98.00;;;;;;5081878;28;20803;-65
2022/04/27 01:29:17;;;;;;;0.90;0.63;;;13.70;97.10;;;;;;5066034;28;20460;-66
2022/04/27 01:31:48;;;;;;;0.70;0.70;;;13.60;97.30;;;;;;5081039;28;20459;-66
2022/04/27 01:34:20;;;;;;;1.37;0.97;;;13.60;98.70;;;;;;5081797;28;20590;-65
2022/04/27 01:36:54;;;;;;;1.93;0.90;;;13.50;98.80;;;;;;5081301;28;20475;-65
2022/04/27 01:39:25;;;;;;;1.23;0.80;;;13.50;99.60;;;;;;5066338;28;20471;-66
2022/04/27 01:41:56;;;;;;;1.03;0.87;;;13.60;99.10;;;;;;5069606;28;20483;-62
2022/04/27 01:44:28;;;;;;;2.50;1.60;;;13.40;98.90;;;;;;5081059;28;20490;-64
2022/04/27 01:47:00;;;;;;;1.37;0.53;;;13.40;99.20;;;;;;5081439;28;20452;-63
2022/04/27 01:49:31;;;;;;;2.80;0.83;;;13.40;98.40;;;;;;5066754;28;20470;-62
2022/04/27 01:54:51;;;;;;;1.23;0.90;;;13.30;99.90;;;;;;5074675;28;21529;-62
2022/04/27 01:57:22;;;;;;;1.10;0.57;;;13.30;99.20;;;;;;5074986;28;20524;-62
2022/04/27 01:59:53;;;;;;;0.90;0.77;;;13.20;99.00;;;;;;5073602;28;20471;-62
2022/04/27 02:02:24;;;;;;;0.80;0.60;;;13.00;99.90;;;;;;5079962;28;20793;-63
2022/04/27 02:04:55;;;;;;;1.60;0.70;;;13.00;99.90;;;;;;5080703;28;20493;-62
2022/04/27 02:07:28;;;;;;;1.63;0.50;;;12.80;99.90;;;;;;5080303;28;20459;-63
2022/04/27 02:09:59;;;;;;;0.93;0.73;;;12.80;99.90;;;;;;5079300;28;20937;-62
2022/04/27 02:12:29;;;;;;;2.40;0.80;;;12.80;99.90;;;;;;5080211;28;21153;-62
2022/04/27 02:15:01;;;;;;;1.27;1.03;;;12.90;99.90;;;;;;5079446;28;20494;-63
2022/04/27 02:17:32;;;;;;;1.17;1.00;;;12.80;99.90;;;;;;5079421;28;20456;-64
2022/04/27 02:20:04;;;;;;;0.70;0.60;;;12.70;99.90;;;;;;5082875;28;20431;-63
2022/04/27 02:22:37;;;;;;;1.07;0.90;;;12.60;99.90;;;;;;5080718;28;20482;-63
2022/04/27 02:25:08;;;;;;;1.13;0.70;;;12.50;99.90;;;;;;5080850;28;20445;-62
2022/04/27 02:27:39;;;;;;;2.17;1.10;;;12.50;99.90;;;;;;5077751;28;20467;-63
2022/04/27 02:30:11;;;;;;;2.53;0.80;;;12.40;99.90;;;;;;5080314;28;20444;-63
2022/04/27 02:32:42;;;;;;;1.63;0.93;;;12.30;99.90;;;;;;5067594;28;20444;-63
2022/04/27 02:35:17;;;;;;;1.60;1.27;;;12.20;99.90;;;;;;5074419;28;20562;-63
2022/04/27 02:37:49;;;;;;;1.60;1.37;;;12.20;99.90;;;;;;5084465;28;20474;-63
2022/04/27 02:40:20;;;;;;;0.80;0.80;;;12.10;99.90;;;;;;5084308;28;20451;-63
2022/04/27 02:42:52;;;;;;;1.00;0.80;;;12.10;99.90;;;;;;5083963;28;20477;-63
2022/04/27 02:45:23;;;;;;;1.00;0.90;;;12.00;99.90;;;;;;5082756;28;20450;-65
2022/04/27 02:47:55;;;;;;;1.13;0.60;;;11.90;99.90;;;;;;5083954;28;20466;-63
2022/04/27 02:53:15;;;;;;;0.97;0.60;;;11.70;99.90;;;;;;5084041;28;20447;-62
2022/04/27 02:55:46;;;;;;;1.00;0.70;;;11.70;99.90;;;;;;5085616;28;20487;-62
2022/04/27 02:58:16;;;;;;;0.63;0.63;;;11.70;99.90;;;;;;5078294;28;20472;-62
2022/04/27 03:00:47;;;;;;;0.87;0.63;;;11.60;99.90;;;;;;5083961;28;20487;-62
2022/04/27 03:03:18;;;;;;;0.50;0.50;;;11.50;99.90;;;;;;5080082;28;20459;-63
2022/04/27 03:05:49;;;;;;;0.90;0.70;;;11.40;99.90;;;;;;5084288;28;20467;-63
2022/04/27 03:08:22;;;;;;;0.83;0.70;;;11.30;99.90;;;;;;5081679;28;20467;-63
2022/04/27 03:10:52;;;;;;;0.60;0.50;;;11.20;99.90;;;;;;5084290;28;20489;-64
2022/04/27 03:13:23;;;;;;;1.40;0.80;;;11.20;99.90;;;;;;5083454;28;20475;-63
2022/04/27 03:15:54;;;;;;;0.87;0.87;;;11.20;99.90;;;;;;5083444;28;20501;-63
2022/04/27 03:18:25;;;;;;;2.53;0.83;;;11.30;99.90;;;;;;5081066;28;20451;-63
2022/04/27 03:20:56;;;;;;;1.23;1.00;;;11.10;99.90;;;;;;5078992;28;20547;-66
2022/04/27 03:23:30;;;;;;;2.67;0.73;;;11.00;99.90;;;;;;5082151;28;20474;-63
2022/04/27 03:26:01;;;;;;;1.97;0.90;;;11.00;99.90;;;;;;5083763;28;20677;-63
2022/04/27 03:28:32;;;;;;;1.20;0.77;;;10.90;99.90;;;;;;5081369;28;20973;-63
2022/04/27 03:31:06;;;;;;;1.10;0.87;;;10.90;99.90;;;;;;5084120;28;20459;-63
2022/04/27 03:33:37;;;;;;;1.23;1.13;;;10.90;99.90;;;;;;5083218;28;20458;-64
2022/04/27 03:36:11;;;;;;;1.00;1.00;;;10.90;99.90;;;;;;5082391;28;20491;-62
2022/04/27 03:38:44;;;;;;;1.50;1.00;;;10.80;99.90;;;;;;5079341;28;20451;-63
2022/04/27 03:41:17;;;;;;;2.43;0.90;;;10.80;99.90;;;;;;5082653;28;20471;-63
2022/04/27 03:43:48;;;;;;;3.43;0.90;;;10.70;99.90;;;;;;5082247;28;20466;-63
2022/04/27 03:46:19;;;;;;;2.10;1.23;;;10.70;99.90;;;;;;5083121;28;20808;-63
2022/04/27 03:49:10;;;;;;;1.40;1.30;;;10.70;99.90;;;;;;5082002;28;20452;-63
2022/04/27 03:51:41;;;;;;;1.47;1.00;;;10.60;99.90;;;;;;5082339;28;20456;-63
2022/04/27 03:54:14;;;;;;;2.10;0.90;;;10.50;99.90;;;;;;5075640;28;20464;-63
2022/04/27 03:56:44;;;;;;;0.60;0.60;;;10.60;99.90;;;;;;5079829;28;20525;-62
2022/04/27 03:59:16;;;;;;;1.70;0.83;;;10.60;99.90;;;;;;5081497;28;20790;-62
2022/04/27 04:01:46;;;;;;;1.10;1.00;;;10.60;99.90;;;;;;5082709;28;20526;-63
2022/04/27 04:04:17;;;;;;;2.60;1.10;;;10.70;99.90;;;;;;5082712;28;20529;-64
2022/04/27 04:06:48;;;;;;;1.13;1.00;;;10.60;99.90;;;;;;5083543;28;20455;-63
2022/04/27 04:09:21;;;;;;;2.37;1.10;;;10.70;99.90;;;;;;5080972;28;20462;-63
2022/04/27 04:11:51;;;;;;;1.23;1.13;;;10.70;99.90;;;;;;5080685;28;20741;-63
2022/04/27 04:14:22;;;;;;;4.27;1.30;;;10.70;99.90;;;;;;5081826;28;20513;-63
2022/04/27 04:16:53;;;;;;;1.83;0.90;;;10.80;99.90;;;;;;5082072;28;20495;-63
2022/04/27 04:19:24;;;;;;;1.40;1.20;;;10.80;99.90;;;;;;5082447;28;20971;-64
2022/04/27 04:21:56;;;;;;;1.80;1.30;;;10.70;99.90;;;;;;5077615;28;20935;-62
2022/04/27 04:24:28;;;;;;;1.10;1.00;;;10.60;99.90;;;;;;5079571;28;20474;-62
2022/04/27 04:29:46;;;;;;;1.00;1.00;;;10.60;99.90;;;;;;5077030;28;20467;-63
2022/04/27 04:32:17;;;;;;;2.00;1.23;;;10.70;99.90;;;;;;5081587;28;20463;-62
2022/04/27 04:34:51;;;;;;;1.27;1.17;;;10.70;99.90;;;;;;5082181;28;20470;-63
2022/04/27 04:37:22;;;;;;;1.90;1.00;;;10.70;99.90;;;;;;5083258;28;20460;-63
2022/04/27 04:39:54;;;;;;;0.93;0.80;;;10.60;99.90;;;;;;5081088;28;20463;-63
2022/04/27 04:42:30;;;;;;;1.43;0.93;;;10.60;99.90;;;;;;5071090;28;20451;-63
2022/04/27 04:45:00;;;;;;;1.50;1.17;;;10.50;99.90;;;;;;5081692;28;20566;-63
2022/04/27 04:47:32;;;;;;;0.80;0.80;;;10.50;99.90;;;;;;5082928;28;20455;-63
2022/04/27 04:50:03;;;;;;;1.10;0.70;;;10.40;99.90;;;;;;5082999;28;20448;-62
2022/04/27 04:52:34;;;;;;;1.80;1.47;;;10.40;99.90;;;;;;5084160;28;20455;-62
2022/04/27 04:55:07;;;;;;;0.80;0.80;;;10.30;99.90;;;;;;5082338;28;20455;-63
2022/04/27 04:57:38;;;;;;;1.20;1.10;;;10.30;99.90;;;;;;5077570;28;20470;-63
2022/04/27 05:00:10;;;;;;;1.63;1.13;;;10.30;99.90;;;;;;5082728;28;20452;-62
2022/04/27 05:02:41;;;;;;;2.17;1.40;;;10.30;99.90;;;;;;5083390;28;20482;-63
2022/04/27 05:05:12;;;;;;;1.13;1.00;;;10.30;99.90;;;;;;5082903;28;20542;-63
2022/04/27 05:07:43;;;;;;;1.90;1.10;;;10.30;99.90;;;;;;5083663;28;20440;-62
2022/04/27 05:10:16;;;;;;;1.10;1.00;;;10.30;99.90;;;;;;5082463;28;20458;-62
2022/04/27 05:12:46;;;;;;;1.57;1.47;;;10.20;99.90;;;;;;5085281;28;20454;-63
2022/04/27 05:15:17;;;;;;;1.30;1.20;;;10.20;99.90;;;;;;5091246;28;20454;-63
2022/04/27 05:17:49;;;;;;;1.70;1.47;;;10.10;99.90;;;;;;5081914;28;20494;-63
2022/04/27 05:20:20;;;;;;;2.27;1.37;;;10.00;99.90;;;;;;5075904;28;20454;-63
2022/04/27 05:22:50;;;;;;;2.60;1.50;;;9.90;99.90;;;;;;5082505;28;20452;-62
2022/04/27 05:25:23;;;;;;;1.33;1.20;;;9.90;99.90;;;;;;5079001;28;20474;-63
2022/04/27 05:27:54;;;;;;;2.03;1.50;;;9.90;99.90;;;;;;5077951;28;20468;-63
2022/04/27 05:33:13;;;;;;;1.40;1.27;;;9.80;99.90;;;;;;5082837;28;20462;-62
2022/04/27 05:35:44;;;;;;;2.57;1.20;;;9.70;99.90;;;;;;5082635;28;20490;-63
2022/04/27 05:38:14;;;;;;;2.15;1.52;;;9.70;99.90;;;;;;5081218;28;20462;-63
2022/04/27 05:40:47;;;;;;;4.63;3.13;;;9.60;99.90;;;;;;5082163;28;20273;-62
2022/04/27 05:43:18;;;;;;;1.70;1.60;;;9.50;99.90;;;;;;5081804;28;20467;-63
2022/04/27 05:45:50;;;;;;;1.50;1.40;;;9.40;99.90;;;;;;5080557;28;20471;-63
2022/04/27 05:48:21;;;;;;;1.95;1.33;;;9.40;99.90;;;;;;5068371;28;20529;-62
2022/04/27 05:50:52;;;;;;;1.90;1.25;;;9.40;99.90;;;;;;5081839;28;20261;-63
2022/04/27 05:53:23;;;;;;;4.60;1.50;;;9.30;99.90;;;;;;5080629;28;20216;-62
2022/04/27 05:55:55;;;;;;;1.93;1.23;;;9.20;99.90;;;;;;5079945;28;20497;-63
2022/04/27 05:58:26;;;;;;;1.60;1.27;;;9.10;99.90;;;;;;5075763;28;20466;-62
2022/04/27 06:00:56;;;;;;;2.30;1.67;;;9.10;99.90;;;;;;5081357;28;20464;-63
2022/04/27 06:03:27;;;;;;;2.10;1.40;;;9.10;99.90;;;;;;5080580;28;20219;-63
2022/04/27 06:05:58;;;;;;;1.60;1.40;;;9.00;99.90;;;;;;5080453;28;20463;-63
2022/04/27 06:08:29;;;;;;;1.73;1.40;;;9.00;99.90;;;;;;5082697;28;20535;-63
2022/04/27 06:11:02;;;;;;;2.13;1.70;;;9.00;99.90;;;;;;5084472;28;20463;-63
2022/04/27 06:13:32;;;;;;;1.43;1.33;;;8.90;99.90;;;;;;5085051;28;20578;-63
2022/04/27 06:16:03;;;;;;;2.15;1.60;;;8.90;99.90;;;;;;5085189;28;20826;-62
2022/04/27 06:18:34;;;;;;;1.58;1.48;;;8.90;99.90;;;;;;5080704;28;20205;-63
2022/04/27 06:21:05;;;;;;;3.40;1.75;;;8.90;99.90;;;;;;5084424;28;20193;-62
2022/04/27 06:23:35;;;;;;;2.25;1.75;;;8.80;99.90;;;;;;5084266;28;20201;-62
2022/04/27 06:26:08;;;;;;;9.88;2.30;;;8.80;99.90;;;;;;5084742;28;21674;-62
2022/04/27 06:28:39;;;;;;;1.70;1.60;;;8.80;99.90;;;;;;5085215;28;20209;-63
2022/04/27 06:31:09;;;;;;;1.70;1.60;;;8.80;99.90;;;;;;5085112;28;20201;-63
2022/04/27 06:33:40;;;;;;;11.32;1.88;;;8.80;99.90;;;;;;5083292;28;20231;-62
2022/04/27 06:36:11;;;;;;;1.92;1.83;;;8.80;99.90;;;;;;5083230;28;20208;-62
2022/04/27 06:38:42;;;;;;;2.10;2.00;;;8.80;99.90;;;;;;5076723;28;20193;-62
2022/04/27 06:41:20;;;;;;;3.90;2.05;;;8.80;99.90;;;;;;5074215;28;21025;-61
2022/04/27 06:43:50;;;;;;;2.67;2.38;;;8.70;99.90;;;;;;5083758;28;20201;-62
2022/04/27 06:46:21;;;;;;;2.45;2.15;;;8.70;99.90;;;;;;5084685;28;20641;-62
2022/04/27 06:48:52;;;;;;;3.20;2.00;;;8.70;99.90;;;;;;5084571;28;20201;-62
2022/04/27 06:51:23;;;;;;;2.85;2.30;;;8.70;99.90;;;;;;5084268;28;20935;-62
2022/04/27 06:53:53;;;;;;;2.40;1.65;;;8.60;99.90;;;;;;5081979;28;20208;-63
2022/04/27 06:56:26;;;;;;;2.33;1.90;;;8.60;99.90;;;;;;5079159;28;20202;-63
2022/04/27 06:58:56;;;;;;;2.50;2.05;;;8.60;99.90;;;;;;5082518;28;20221;-62
2022/04/27 07:01:27;;;;;;;4.13;2.17;;;8.60;99.90;;;;;;5082568;28;20205;-62
2022/04/27 07:04:06;;;;;;;2.65;1.90;;;8.60;99.90;;;;;;5083280;28;20240;-63
2022/04/27 07:06:38;;;;;;;2.08;1.92;;;8.60;99.90;;;;;;5082894;28;20220;-63
2022/04/27 07:09:10;;;;;;;2.30;1.90;;;8.60;99.90;;;;;;5079486;28;20193;-62
2022/04/27 07:11:43;;;;;;;2.28;1.95;;;8.60;99.90;;;;;;5076758;28;20274;-63
2022/04/27 07:14:16;;;;;;;2.60;2.40;;;8.70;99.90;;;;;;5075294;28;20677;-62
2022/04/27 07:16:46;;;;;;;2.20;2.00;;;8.70;99.90;;;;;;5079050;28;20233;-60
2022/04/27 07:19:18;;;;;;;2.75;2.50;;;8.60;99.90;;;;;;5083690;28;20212;-61
2022/04/27 07:21:48;;;;;;;2.47;2.27;;;8.60;99.90;;;;;;5082248;28;20201;-61
2022/04/27 07:24:20;;;;;;;8.13;2.53;;;8.50;99.90;;;;;;5082712;28;20569;-61
2022/04/27 07:26:53;;;;;;;3.70;2.53;;;8.50;99.90;;;;;;5083815;28;20216;-62
2022/04/27 07:29:24;;;;;;;2.33;2.13;;;8.50;99.90;;;;;;5083453;28;20205;-62
2022/04/27 07:31:55;;;;;;;2.80;2.47;;;8.60;99.90;;;;;;5083207;28;20209;-62
2022/04/27 07:34:26;;;;;;;3.60;2.38;;;8.60;99.90;;;;;;5082224;28;20263;-63
2022/04/27 07:36:58;;;;;;;6.18;2.42;;;8.60;99.90;;;;;;5081905;28;20239;-62
2022/04/27 07:39:29;;;;;;;2.60;2.03;;;8.50;99.90;;;;;;5082291;28;20202;-62
2022/04/27 07:42:01;;;;;;;2.35;2.13;;;8.50;99.90;;;;;;5081977;28;20464;-62
2022/04/27 07:44:32;;;;;;;2.72;2.53;;;8.50;99.90;;;;;;5084005;28;20212;-63
2022/04/27 07:47:03;;;;;;;3.13;2.83;;;8.60;99.90;;;;;;5083919;28;20209;-62
2022/04/27 07:49:34;;;;;;;3.00;2.25;;;8.70;99.90;;;;;;5083306;28;20273;-63
2022/04/27 07:52:06;;;;;;;4.57;2.17;;;8.60;99.90;;;;;;5082908;28;20263;-62
2022/04/27 07:54:37;;;;;;;2.92;2.58;;;8.60;99.90;;;;;;5082104;28;20464;-62
2022/04/27 07:57:09;;;;;;;2.85;2.47;;;8.70;99.90;;;;;;5078048;28;20230;-62
2022/04/27 07:59:40;;;;;;;2.80;2.50;;;8.70;99.90;;;;;;5082971;28;20522;-62
2022/04/27 08:02:11;;;;;;;3.95;2.60;;;8.60;99.90;;;;;;5082759;28;20558;-63
2022/04/27 08:04:42;;;;;;;2.97;2.58;;;8.60;99.90;;;;;;5083003;28;20328;-62
2022/04/27 08:07:13;;;;;;;4.25;3.00;;;8.70;99.90;;;;;;5081866;28;20261;-62
2022/04/27 08:09:44;;;;;;;3.88;2.53;;;8.70;99.90;;;;;;5081452;28;20209;-62
2022/04/27 08:12:16;;;;;;;3.63;2.00;;;8.70;99.90;;;;;;5082404;28;20223;-62
2022/04/27 08:14:47;;;;;;;3.35;2.75;;;8.70;99.90;;;;;;5082379;28;20585;-62
2022/04/27 08:17:17;;;;;;;3.10;2.42;;;8.60;99.90;;;;;;5082605;28;20237;-63
2022/04/27 08:21:13;;;;;;;2.70;2.50;;;8.60;99.90;;;;;;5082620;28;20201;-62
2022/04/27 08:22:39;;;;;;;3.22;2.85;;;8.60;99.90;;;;;;5079766;28;20287;-62
2022/04/27 08:25:11;;;;;;;3.33;3.00;;;8.60;99.90;;;;;;5080501;28;20209;-62
2022/04/27 08:27:44;;;;;;;3.10;2.38;;;8.60;99.90;;;;;;5081787;28;20206;-62
2022/04/27 08:30:15;;;;;;;3.77;2.60;;;8.60;99.90;;;;;;5082554;28;20209;-62
2022/04/27 08:32:46;;;;;;;3.70;3.05;;;8.50;99.90;;;;;;5080447;28;20536;-62
2022/04/27 08:35:16;;;;;;;3.30;2.70;;;8.50;99.90;;;;;;5076739;28;21313;-63
2022/04/27 08:37:47;;;;;;;5.53;3.00;;;8.50;99.90;;;;;;5080706;28;20240;-62
2022/04/27 08:40:18;;;;;;;3.35;2.65;;;8.50;99.90;;;;;;5081878;28;20209;-62
2022/04/27 08:42:50;;;;;;;4.70;3.00;;;8.60;99.90;;;;;;5082707;28;20209;-62
2022/04/27 08:45:22;;;;;;;3.50;3.13;;;8.60;99.90;;;;;;5075797;28;20284;-62
2022/04/27 08:47:59;;;;;;;5.72;3.08;;;8.60;99.90;;;;;;5069832;28;20268;-62
2022/04/27 08:50:30;;;;;;;4.68;3.67;;;8.70;99.90;;;;;;5082039;28;20652;-62
2022/04/27 08:53:01;;;;;;;4.50;3.53;;;8.60;99.90;;;;;;5082539;28;20548;-62
2022/04/27 08:55:32;;;;;;;4.60;3.60;;;8.60;99.90;;;;;;5081601;28;20209;-62
2022/04/27 08:58:12;;;;;;;4.65;3.63;;;8.60;99.90;;;;;;5081753;28;20324;-61
2022/04/27 09:01:03;;;;;;;5.30;3.40;;;8.50;99.90;;;;;;5082010;28;21246;-62
2022/04/27 09:03:35;;;;;;;3.58;3.28;;;8.50;99.90;;;;;;5081312;28;20474;-62
2022/04/27 09:06:07;;;;;;;3.15;2.95;;;8.50;99.90;;;;;;5082558;28;20209;-62
2022/04/27 09:08:43;;;;;;;7.20;4.30;;;8.60;99.90;;;;;;5080013;28;20223;-63
2022/04/27 09:11:19;;;;;;;4.20;3.80;;;8.50;99.90;;;;;;5083223;28;20443;-62
2022/04/27 09:13:53;;;;;;;6.18;3.47;;;8.50;99.90;;;;;;5080729;28;20234;-63
2022/04/27 09:16:26;;;;;;;2.90;2.60;;;8.50;99.90;;;;;;5081622;28;20205;-62
2022/04/27 09:22:00;;;;;;;3.63;3.33;;;8.40;99.90;;;;;;5080580;28;20526;-62
2022/04/27 09:24:48;;;;;;;4.57;3.50;;;8.50;99.90;;;;;;5080356;28;20280;-62
2022/04/27 09:27:20;;;;;;;6.60;3.30;;;8.50;99.90;;;;;;5079813;28;20205;-62
2022/04/27 09:30:04;;;;;;;3.35;3.05;;;8.50;99.90;;;;;;5081355;28;20234;-62
2022/04/27 09:32:35;;;;;;;4.55;4.15;;;8.50;99.90;;;;;;5082043;28;20197;-62
2022/04/27 09:35:09;;;;;;;3.55;3.20;;;8.50;99.90;;;;;;5081825;28;20215;-62
2022/04/27 09:37:42;;;;;;;4.25;3.60;;;8.40;99.90;;;;;;5082013;28;20200;-62
2022/04/27 09:40:14;;;;;;;5.38;3.40;;;8.40;99.90;;;;;;5078843;28;20331;-62
2022/04/27 09:42:46;;;;;;;4.40;3.78;;;8.50;99.90;;;;;;5080553;28;20217;-62
2022/04/27 09:45:20;;;;;;;3.90;3.60;;;8.60;99.90;;;;;;5072859;28;20193;-62
2022/04/27 09:47:55;;;;;;;4.40;3.72;;;8.60;99.90;;;;;;5086075;28;20220;-62
2022/04/27 09:50:26;;;;;;;3.65;3.35;;;8.60;99.90;;;;;;5084311;28;20220;-62
2022/04/27 09:52:58;;;;;;;4.55;4.13;;;8.60;99.90;;;;;;5083003;28;20225;-62
2022/04/27 09:55:29;;;;;;;3.63;3.33;;;8.50;99.90;;;;;;5084733;28;20216;-62
2022/04/27 09:58:01;;;;;;;5.50;4.03;;;8.50;99.90;;;;;;5085060;28;20243;-62
2022/04/27 10:00:35;;;;;;;5.22;3.75;;;8.50;99.90;;;;;;5084908;28;20205;-62
2022/04/27 10:03:05;;;;;;;4.30;3.90;;;8.50;99.90;;;;;;5085041;28;20220;-62
2022/04/27 10:05:36;;;;;;;4.50;4.10;;;8.50;99.90;;;;;;5085025;28;20201;-62
2022/04/27 10:08:10;;;;;;;4.00;3.70;;;8.60;99.90;;;;;;5085057;28;20205;-62
2022/04/27 10:10:44;;;;;;;4.63;3.90;;;8.50;99.90;;;;;;5085052;28;20198;-62
2022/04/27 10:13:16;;;;;;;4.00;3.60;;;8.50;99.90;;;;;;5084579;28;20252;-62
2022/04/27 10:15:50;;;;;;;3.70;3.40;;;8.50;99.90;;;;;;5083294;28;20470;-62
2022/04/27 10:18:21;;;;;;;8.57;4.03;;;8.50;99.90;;;;;;5085328;28;20475;-62
2022/04/27 10:20:53;;;;;;;4.43;4.03;;;8.60;99.90;;;;;;5079913;28;20205;-62
2022/04/27 10:23:28;;;;;;;5.88;3.20;;;8.50;99.90;;;;;;5082111;28;20459;-62
2022/04/27 10:26:15;;;;;;;3.70;3.23;;;8.50;99.90;;;;;;5081750;28;20551;-62
2022/04/27 10:28:49;;;;;;;5.05;4.60;;;8.60;99.90;;;;;;5084708;28;20476;-62
2022/04/27 10:31:56;;;;;;;4.40;4.00;;;8.70;99.90;;;;;;5083641;28;20261;-62
2022/04/27 10:34:29;;;;;;;5.30;4.65;;;8.70;99.90;;;;;;5083368;28;20197;-62
2022/04/27 10:37:00;;;;;;;4.50;3.80;;;8.60;99.90;;;;;;5085036;28;20201;-62
2022/04/27 10:39:32;;;;;;;5.35;4.28;;;8.60;99.90;;;;;;5084048;28;20224;-62
2022/04/27 10:42:32;;;;;;;7.50;4.60;;;8.70;99.90;;;;;;5084841;28;20209;-62
2022/04/27 10:45:12;;;;;;;6.30;4.25;;;8.60;99.90;;;;;;5083923;28;20494;-62
2022/04/27 10:47:44;;;;;;;4.60;4.20;;;8.60;99.90;;;;;;5071604;28;20231;-62
2022/04/27 10:50:33;;;;;;;6.15;4.93;;;8.50;99.90;;;;;;5076745;28;20481;-62
2022/04/27 10:53:18;;;;;;;4.80;4.37;;;8.70;99.90;;;;;;5082572;28;20211;-62
2022/04/27 10:56:05;;;;;;;5.23;4.73;;;8.60;99.90;;;;;;5083436;28;20468;-62
2022/04/27 10:58:42;;;;;;;5.25;4.30;;;8.60;99.90;;;;;;5083963;28;20505;-62
2022/04/27 11:01:25;;;;;;;6.80;4.10;;;8.60;99.90;;;;;;5073311;28;20284;-62
2022/04/27 11:04:07;;;;;;;5.60;3.77;;;8.60;99.90;;;;;;5084933;28;20250;-62
2022/04/27 11:07:14;;;;;;;4.78;3.33;;;8.50;99.90;;;;;;5084890;28;20460;-62
2022/04/27 11:10:16;;;;;;;5.05;4.07;;;8.60;99.90;;;;;;5074179;28;20208;-62
2022/04/27 11:12:50;;;;;;;4.30;3.77;;;8.60;99.90;;;;;;5085076;28;20201;-62
2022/04/27 11:15:23;;;;;;;3.97;2.85;;;8.60;99.90;;;;;;5076359;28;20478;-62
2022/04/27 11:17:56;;;;;;;3.25;2.83;;;8.70;99.90;;;;;;5079800;28;20217;-62
2022/04/27 11:20:35;;;;;;;4.43;4.13;;;8.70;99.90;;;;;;5082685;28;20221;-62
2022/04/27 11:23:09;;;;;;;2.95;2.65;;;8.60;99.90;;;;;;5073296;28;20474;-62
2022/04/27 11:25:41;;;;;;;4.00;3.07;;;8.60;99.90;;;;;;5084213;28;20193;-63
2022/04/27 11:28:13;;;;;;;3.60;3.23;;;8.60;99.90;;;;;;5083245;28;20972;-62
2022/04/27 11:30:44;;;;;;;4.63;3.17;;;8.60;99.90;;;;;;5068591;28;20476;-62
2022/04/27 11:33:19;;;;;;;2.60;2.40;;;8.60;99.90;;;;;;5074116;28;20399;-62
2022/04/27 11:35:50;;;;;;;3.05;2.75;;;8.60;99.90;;;;;;5085003;28;20215;-62
2022/04/27 11:38:23;;;;;;;3.23;2.77;;;8.50;99.90;;;;;;5083868;28;20300;-62
2022/04/27 11:40:55;;;;;;;3.40;3.10;;;8.50;99.90;;;;;;5084213;28;20490;-63
2022/04/27 11:43:27;;;;;;;3.08;2.78;;;8.60;99.90;;;;;;5083903;28;20198;-62
2022/04/27 11:45:58;;;;;;;3.50;3.20;;;8.50;99.90;;;;;;5082480;28;20205;-62
2022/04/27 11:48:33;;;;;;;3.63;2.83;;;8.50;99.90;;;;;;5082708;28;20525;-62
2022/04/27 11:51:06;;;;;;;3.33;2.90;;;8.50;99.90;;;;;;5081582;28;20211;-62
2022/04/27 11:53:47;;;;;;;3.33;2.83;;;8.50;99.90;;;;;;5082818;28;20670;-62
2022/04/27 11:56:19;;;;;;;5.00;3.43;;;8.50;99.90;;;;;;5078223;28;20201;-63
2022/04/27 11:58:50;;;;;;;4.72;2.80;;;8.50;99.90;;;;;;5081580;28;20470;-62
2022/04/27 12:01:22;;;;;;;3.60;3.28;;;8.40;99.90;;;;;;5082221;28;20197;-64
2022/04/27 12:03:54;;;;;;;4.85;4.00;;;8.40;99.90;;;;;;5082430;28;20216;-64
2022/04/27 12:06:27;;;;;;;3.63;3.33;;;8.50;99.90;;;;;;5083105;28;20280;-64
2022/04/27 12:09:03;;;;;;;4.63;4.22;;;8.50;99.90;;;;;;5081899;28;20210;-62
2022/04/27 12:11:35;;;;;;;4.45;3.78;;;8.50;99.90;;;;;;5081168;28;20232;-62
2022/04/27 12:14:06;;;;;;;4.43;3.70;;;8.50;99.90;;;;;;5083447;28;20357;-67
2022/04/27 12:16:41;;;;;;;5.15;3.15;;;8.40;99.90;;;;;;5084033;28;20629;-62
2022/04/27 12:19:13;;;;;;;5.30;3.67;;;8.50;99.90;;;;;;5084340;28;20621;-62
2022/04/27 12:21:45;;;;;;;4.28;3.88;;;8.50;99.90;;;;;;5082057;28;20205;-62
2022/04/27 12:24:21;;;;;;;5.23;3.57;;;8.50;99.90;;;;;;5081687;28;20265;-62
2022/04/27 12:26:52;;;;;;;4.17;3.30;;;8.50;99.90;;;;;;5081104;28;20489;-62
2022/04/27 12:29:26;;;;;;;5.00;3.70;;;8.50;99.90;;;;;;5083277;28;20463;-63
2022/04/27 12:31:58;;;;;;;5.90;3.67;;;8.50;99.90;;;;;;5080450;28;20205;-63
2022/04/27 12:37:32;;;;;;;5.97;3.60;;;8.30;99.90;;;;;;5082156;28;20301;-63
2022/04/27 12:40:17;;;;;;;3.53;3.22;;;8.30;99.90;;;;;;5078831;28;20229;-62
2022/04/27 12:43:01;;;;;;;3.45;3.15;;;8.30;99.90;;;;;;5082066;28;20208;-63
2022/04/27 12:45:33;;;;;;;4.22;2.80;;;8.30;99.90;;;;;;5080238;28;20205;-62
2022/04/27 12:48:06;;;;;;;3.08;2.78;;;8.30;99.90;;;;;;5081234;28;20209;-63
2022/04/27 12:50:47;;;;;;;4.13;2.63;;;8.30;99.90;;;;;;5079353;28;20197;-64
2022/04/27 12:53:19;;;;;;;3.70;3.35;;;8.30;99.90;;;;;;5080292;28;20301;-62
2022/04/27 12:56:05;;;;;;;4.00;3.60;;;8.30;99.90;;;;;;5081820;28;20201;-63
2022/04/27 12:58:36;;;;;;;3.45;3.10;;;8.20;99.90;;;;;;5080403;28;20197;-63
2022/04/27 13:01:07;;;;;;;3.60;3.30;;;8.30;99.90;;;;;;5081867;28;20228;-62
2022/04/27 13:03:38;;;;;;;4.15;3.63;;;8.20;99.90;;;;;;5082858;28;20224;-62
2022/04/27 13:06:09;;;;;;;3.30;3.00;;;8.20;99.90;;;;;;5080990;28;20205;-63
2022/04/27 13:08:42;;;;;;;3.70;3.15;;;8.20;99.90;;;;;;5080243;28;20207;-62
2022/04/27 13:14:02;;;;;;;3.20;2.92;;;8.20;99.90;;;;;;5081677;28;20241;-62
2022/04/27 13:16:33;;;;;;;3.20;2.92;;;8.20;99.90;;;;;;5076821;28;20205;-62
2022/04/27 13:19:04;;;;;;;5.47;3.42;;;8.10;99.90;;;;;;5082437;28;20197;-62
2022/04/27 13:21:35;;;;;;;3.45;3.15;;;8.10;99.90;;;;;;5081943;28;20225;-62
2022/04/27 13:24:06;;;;;;;3.95;2.90;;;8.20;99.90;;;;;;5080574;28;20202;-63
2022/04/27 13:26:38;;;;;;;3.08;2.88;;;8.20;99.90;;;;;;5081299;28;20205;-62
2022/04/27 13:29:09;;;;;;;3.50;2.97;;;8.20;99.90;;;;;;5080662;28;20219;-62
2022/04/27 13:31:40;;;;;;;4.75;2.70;;;8.20;99.90;;;;;;5080474;28;20205;-62
2022/04/27 13:34:11;;;;;;;3.60;2.90;;;8.20;99.90;;;;;;5079329;28;20205;-63
2022/04/27 13:36:42;;;;;;;3.80;2.75;;;8.30;99.90;;;;;;5081004;28;20220;-62
2022/04/27 13:39:12;;;;;;;2.80;2.60;;;8.20;99.90;;;;;;5081257;28;20317;-62
2022/04/27 13:41:45;;;;;;;4.28;2.83;;;8.30;99.90;;;;;;5079099;28;20237;-63